sensor_id;sensor_type;location;lat;lon;timestamp;P1;P2;P0
61815;PMS5003;57055;-35.296;149.168;2023-06-22T00:00:28;10;10;
61815;PMS5003;57055;-35.296;149.168;2023-06-22T00:02:57;13;13;
61815;PMS5003;57055;-35.296;149.168;2023-06-22T00:05:26;10;10;
61815;PMS5003;57055;-35.296;149.168;2023-06-22T00:07:55;12;10;
61815;PMS5003;57055;-35.296;149.168;2023-06-22T00:10:24;12;11;
61815;PMS5003;57055;-35.296;149.168;2023-06-22T00:12:53;13;13;
61815;PMS5003;57055;-35.296;149.168;2023-06-22T00:15:22;14;12;
61815;PMS5003;57055;-35.296;149.168;2023-06-22T00:17:52;12;11;
61815;PMS5003;57055;-35.296;149.168;2023-06-22T00:20:20;12;11;
61815;PMS5003;57055;-35.296;149.168;2023-06-22T00:22:49;11;11;
61815;PMS5003;57055;-35.296;149.168;2023-06-22T00:25:18;15;15;
61815;PMS5003;57055;-35.296;149.168;2023-06-22T00:27:48;15;14;
61815;PMS5003;57055;-35.296;149.168;2023-06-22T00:30:17;13;13;
61815;PMS5003;57055;-35.296;149.168;2023-06-22T00:32:47;15;14;
61815;PMS5003;57055;-35.296;149.168;2023-06-22T00:35:16;17;14;
61815;PMS5003;57055;-35.296;149.168;2023-06-22T00:37:45;14;14;
61815;PMS5003;57055;-35.296;149.168;2023-06-22T00:40:14;14;13;
61815;PMS5003;57055;-35.296;149.168;2023-06-22T00:42:42;10;10;
61815;PMS5003;57055;-35.296;149.168;2023-06-22T00:45:11;12;11;
61815;PMS5003;57055;-35.296;149.168;2023-06-22T00:47:40;12;12;
61815;PMS5003;57055;-35.296;149.168;2023-06-22T00:50:09;11;10;
61815;PMS5003;57055;-35.296;149.168;2023-06-22T00:52:45;10;8;
61815;PMS5003;57055;-35.296;149.168;2023-06-22T00:55:15;8;8;
61815;PMS5003;57055;-35.296;149.168;2023-06-22T00:57:44;10;9;
61815;PMS5003;57055;-35.296;149.168;2023-06-22T01:00:15;8;8;
61815;PMS5003;57055;-35.296;149.168;2023-06-22T01:02:45;9;9;
61815;PMS5003;57055;-35.296;149.168;2023-06-22T01:05:15;9;6;
61815;PMS5003;57055;-35.296;149.168;2023-06-22T01:07:46;6;5;
61815;PMS5003;57055;-35.296;149.168;2023-06-22T01:10:29;4;4;
61815;PMS5003;57055;-35.296;149.168;2023-06-22T01:13:06;4;4;
61815;PMS5003;57055;-35.296;149.168;2023-06-22T01:15:43;4;4;
61815;PMS5003;57055;-35.296;149.168;2023-06-22T01:18:17;5;5;
61815;PMS5003;57055;-35.296;149.168;2023-06-22T01:20:49;5;5;
61815;PMS5003;57055;-35.296;149.168;2023-06-22T01:23:24;3;3;
61815;PMS5003;57055;-35.296;149.168;2023-06-22T01:26:05;4;4;
61815;PMS5003;57055;-35.296;149.168;2023-06-22T01:28:43;4;4;
61815;PMS5003;57055;-35.296;149.168;2023-06-22T01:31:14;5;4;
61815;PMS5003;57055;-35.296;149.168;2023-06-22T01:33:46;4;4;
61815;PMS5003;57055;-35.296;149.168;2023-06-22T01:36:19;7;6;
61815;PMS5003;57055;-35.296;149.168;2023-06-22T01:38:49;4;4;
61815;PMS5003;57055;-35.296;149.168;2023-06-22T01:41:19;2;2;
61815;PMS5003;57055;-35.296;149.168;2023-06-22T01:43:49;5;5;
61815;PMS5003;57055;-35.296;149.168;2023-06-22T01:46:20;3;3;
61815;PMS5003;57055;-35.296;149.168;2023-06-22T01:48:50;4;4;
61815;PMS5003;57055;-35.296;149.168;2023-06-22T01:51:19;4;4;
61815;PMS5003;57055;-35.296;149.168;2023-06-22T01:53:48;3;3;
61815;PMS5003;57055;-35.296;149.168;2023-06-22T01:56:17;5;3;
61815;PMS5003;57055;-35.296;149.168;2023-06-22T01:58:48;5;4;
61815;PMS5003;57055;-35.296;149.168;2023-06-22T02:01:26;5;5;
61815;PMS5003;57055;-35.296;149.168;2023-06-22T02:04:02;6;5;
61815;PMS5003;57055;-35.296;149.168;2023-06-22T02:06:37;6;4;
61815;PMS5003;57055;-35.296;149.168;2023-06-22T02:09:09;4;3;
61815;PMS5003;57055;-35.296;149.168;2023-06-22T02:11:44;5;5;
61815;PMS5003;57055;-35.296;149.168;2023-06-22T02:14:15;4;4;
61815;PMS5003;57055;-35.296;149.168;2023-06-22T02:16:45;5;5;
61815;PMS5003;57055;-35.296;149.168;2023-06-22T02:19:15;8;4;
61815;PMS5003;57055;-35.296;149.168;2023-06-22T02:21:44;7;7;
61815;PMS5003;57055;-35.296;149.168;2023-06-22T02:24:12;6;4;
61815;PMS5003;57055;-35.296;149.168;2023-06-22T02:26:41;5;5;
61815;PMS5003;57055;-35.296;149.168;2023-06-22T02:29:11;7;6;
61815;PMS5003;57055;-35.296;149.168;2023-06-22T02:31:40;8;6;
61815;PMS5003;57055;-35.296;149.168;2023-06-22T02:34:09;7;5;
61815;PMS5003;57055;-35.296;149.168;2023-06-22T02:36:38;7;7;
61815;PMS5003;57055;-35.296;149.168;2023-06-22T02:39:06;6;6;
61815;PMS5003;57055;-35.296;149.168;2023-06-22T02:41:35;6;6;
61815;PMS5003;57055;-35.296;149.168;2023-06-22T02:44:04;7;7;
61815;PMS5003;57055;-35.296;149.168;2023-06-22T02:46:33;5;5;
61815;PMS5003;57055;-35.296;149.168;2023-06-22T02:49:03;13;8;
61815;PMS5003;57055;-35.296;149.168;2023-06-22T02:51:32;8;7;
61815;PMS5003;57055;-35.296;149.168;2023-06-22T02:54:01;5;4;
61815;PMS5003;57055;-35.296;149.168;2023-06-22T02:56:30;4;4;
61815;PMS5003;57055;-35.296;149.168;2023-06-22T02:58:59;7;7;
61815;PMS5003;57055;-35.296;149.168;2023-06-22T03:01:28;5;5;
61815;PMS5003;57055;-35.296;149.168;2023-06-22T03:03:58;7;7;
61815;PMS5003;57055;-35.296;149.168;2023-06-22T03:06:26;8;7;
61815;PMS5003;57055;-35.296;149.168;2023-06-22T03:08:57;6;5;
61815;PMS5003;57055;-35.296;149.168;2023-06-22T03:11:27;7;6;
61815;PMS5003;57055;-35.296;149.168;2023-06-22T03:13:56;8;7;
61815;PMS5003;57055;-35.296;149.168;2023-06-22T03:16:25;6;5;
61815;PMS5003;57055;-35.296;149.168;2023-06-22T03:18:54;10;4;
61815;PMS5003;57055;-35.296;149.168;2023-06-22T03:21:23;7;7;
61815;PMS5003;57055;-35.296;149.168;2023-06-22T03:23:55;6;6;
61815;PMS5003;57055;-35.296;149.168;2023-06-22T03:26:23;5;5;
61815;PMS5003;57055;-35.296;149.168;2023-06-22T03:28:52;6;6;
61815;PMS5003;57055;-35.296;149.168;2023-06-22T03:31:21;9;7;
61815;PMS5003;57055;-35.296;149.168;2023-06-22T03:33:50;4;4;
61815;PMS5003;57055;-35.296;149.168;2023-06-22T03:36:19;5;5;
61815;PMS5003;57055;-35.296;149.168;2023-06-22T03:38:48;8;6;
61815;PMS5003;57055;-35.296;149.168;2023-06-22T03:41:17;6;6;
61815;PMS5003;57055;-35.296;149.168;2023-06-22T03:43:46;5;5;
61815;PMS5003;57055;-35.296;149.168;2023-06-22T03:46:15;6;6;
61815;PMS5003;57055;-35.296;149.168;2023-06-22T03:48:44;4;4;
61815;PMS5003;57055;-35.296;149.168;2023-06-22T03:51:13;5;5;
61815;PMS5003;57055;-35.296;149.168;2023-06-22T03:53:41;7;6;
61815;PMS5003;57055;-35.296;149.168;2023-06-22T03:56:10;6;6;
61815;PMS5003;57055;-35.296;149.168;2023-06-22T03:58:39;5;5;
61815;PMS5003;57055;-35.296;149.168;2023-06-22T04:01:08;7;6;
61815;PMS5003;57055;-35.296;149.168;2023-06-22T04:03:37;6;5;
61815;PMS5003;57055;-35.296;149.168;2023-06-22T04:06:06;6;6;
61815;PMS5003;57055;-35.296;149.168;2023-06-22T04:08:35;4;4;
61815;PMS5003;57055;-35.296;149.168;2023-06-22T04:11:03;6;5;
61815;PMS5003;57055;-35.296;149.168;2023-06-22T04:13:32;6;6;
61815;PMS5003;57055;-35.296;149.168;2023-06-22T04:16:01;6;6;
61815;PMS5003;57055;-35.296;149.168;2023-06-22T04:18:30;7;5;
61815;PMS5003;57055;-35.296;149.168;2023-06-22T04:20:59;6;6;
61815;PMS5003;57055;-35.296;149.168;2023-06-22T04:23:28;5;5;
61815;PMS5003;57055;-35.296;149.168;2023-06-22T04:25:57;5;4;
61815;PMS5003;57055;-35.296;149.168;2023-06-22T04:28:26;5;5;
61815;PMS5003;57055;-35.296;149.168;2023-06-22T04:30:55;7;6;
61815;PMS5003;57055;-35.296;149.168;2023-06-22T04:33:24;6;6;
61815;PMS5003;57055;-35.296;149.168;2023-06-22T04:35:52;4;4;
61815;PMS5003;57055;-35.296;149.168;2023-06-22T04:38:21;5;5;
61815;PMS5003;57055;-35.296;149.168;2023-06-22T04:40:51;6;6;
61815;PMS5003;57055;-35.296;149.168;2023-06-22T04:43:20;5;5;
61815;PMS5003;57055;-35.296;149.168;2023-06-22T04:45:48;4;4;
61815;PMS5003;57055;-35.296;149.168;2023-06-22T04:48:18;8;5;
61815;PMS5003;57055;-35.296;149.168;2023-06-22T04:50:47;5;4;
61815;PMS5003;57055;-35.296;149.168;2023-06-22T04:53:21;4;4;
61815;PMS5003;57055;-35.296;149.168;2023-06-22T04:55:50;5;5;
61815;PMS5003;57055;-35.296;149.168;2023-06-22T04:58:19;6;6;
61815;PMS5003;57055;-35.296;149.168;2023-06-22T05:00:49;4;4;
61815;PMS5003;57055;-35.296;149.168;2023-06-22T05:03:17;8;6;
61815;PMS5003;57055;-35.296;149.168;2023-06-22T05:05:46;7;5;
61815;PMS5003;57055;-35.296;149.168;2023-06-22T05:08:15;9;6;
61815;PMS5003;57055;-35.296;149.168;2023-06-22T05:10:45;8;6;
61815;PMS5003;57055;-35.296;149.168;2023-06-22T05:13:14;7;7;
61815;PMS5003;57055;-35.296;149.168;2023-06-22T05:15:43;4;4;
61815;PMS5003;57055;-35.296;149.168;2023-06-22T05:18:12;6;6;
61815;PMS5003;57055;-35.296;149.168;2023-06-22T05:20:41;5;5;
61815;PMS5003;57055;-35.296;149.168;2023-06-22T05:23:10;6;6;
61815;PMS5003;57055;-35.296;149.168;2023-06-22T05:25:39;5;5;
61815;PMS5003;57055;-35.296;149.168;2023-06-22T05:28:08;6;6;
61815;PMS5003;57055;-35.296;149.168;2023-06-22T05:30:37;4;4;
61815;PMS5003;57055;-35.296;149.168;2023-06-22T05:33:06;4;4;
61815;PMS5003;57055;-35.296;149.168;2023-06-22T05:35:34;3;3;
61815;PMS5003;57055;-35.296;149.168;2023-06-22T05:38:03;6;6;
61815;PMS5003;57055;-35.296;149.168;2023-06-22T05:40:32;5;5;
61815;PMS5003;57055;-35.296;149.168;2023-06-22T05:43:01;7;6;
61815;PMS5003;57055;-35.296;149.168;2023-06-22T05:45:35;5;5;
61815;PMS5003;57055;-35.296;149.168;2023-06-22T05:48:05;6;5;
61815;PMS5003;57055;-35.296;149.168;2023-06-22T05:50:33;4;4;
61815;PMS5003;57055;-35.296;149.168;2023-06-22T05:53:02;5;5;
61815;PMS5003;57055;-35.296;149.168;2023-06-22T05:55:31;6;6;
61815;PMS5003;57055;-35.296;149.168;2023-06-22T05:58:00;5;5;
61815;PMS5003;57055;-35.296;149.168;2023-06-22T06:00:28;4;3;
61815;PMS5003;57055;-35.296;149.168;2023-06-22T06:02:57;7;5;
61815;PMS5003;57055;-35.296;149.168;2023-06-22T06:05:26;5;3;
61815;PMS5003;57055;-35.296;149.168;2023-06-22T06:07:55;3;3;
61815;PMS5003;57055;-35.296;149.168;2023-06-22T06:10:24;4;4;
61815;PMS5003;57055;-35.296;149.168;2023-06-22T06:12:53;6;6;
61815;PMS5003;57055;-35.296;149.168;2023-06-22T06:15:22;7;4;
61815;PMS5003;57055;-35.296;149.168;2023-06-22T06:17:52;4;4;
61815;PMS5003;57055;-35.296;149.168;2023-06-22T06:20:21;4;4;
61815;PMS5003;57055;-35.296;149.168;2023-06-22T06:22:51;5;5;
61815;PMS5003;57055;-35.296;149.168;2023-06-22T06:25:20;3;3;
61815;PMS5003;57055;-35.296;149.168;2023-06-22T06:27:50;8;4;
61815;PMS5003;57055;-35.296;149.168;2023-06-22T06:30:19;4;4;
61815;PMS5003;57055;-35.296;149.168;2023-06-22T06:32:49;7;5;
61815;PMS5003;57055;-35.296;149.168;2023-06-22T06:35:17;4;4;
61815;PMS5003;57055;-35.296;149.168;2023-06-22T06:37:47;3;3;
61815;PMS5003;57055;-35.296;149.168;2023-06-22T06:40:18;4;3;
61815;PMS5003;57055;-35.296;149.168;2023-06-22T06:42:47;5;3;
61815;PMS5003;57055;-35.296;149.168;2023-06-22T06:45:17;3;3;
61815;PMS5003;57055;-35.296;149.168;2023-06-22T06:47:48;3;3;
61815;PMS5003;57055;-35.296;149.168;2023-06-22T06:50:17;2;1;
61815;PMS5003;57055;-35.296;149.168;2023-06-22T06:52:46;2;2;
61815;PMS5003;57055;-35.296;149.168;2023-06-22T06:55:15;3;3;
61815;PMS5003;57055;-35.296;149.168;2023-06-22T06:57:44;3;3;
61815;PMS5003;57055;-35.296;149.168;2023-06-22T07:00:14;5;3;
61815;PMS5003;57055;-35.296;149.168;2023-06-22T07:02:43;6;4;
61815;PMS5003;57055;-35.296;149.168;2023-06-22T07:05:13;6;6;
61815;PMS5003;57055;-35.296;149.168;2023-06-22T07:07:41;4;4;
61815;PMS5003;57055;-35.296;149.168;2023-06-22T07:10:10;3;2;
61815;PMS5003;57055;-35.296;149.168;2023-06-22T07:12:39;3;3;
61815;PMS5003;57055;-35.296;149.168;2023-06-22T07:15:09;5;5;
61815;PMS5003;57055;-35.296;149.168;2023-06-22T07:17:39;4;4;
61815;PMS5003;57055;-35.296;149.168;2023-06-22T07:20:08;3;3;
61815;PMS5003;57055;-35.296;149.168;2023-06-22T07:22:37;6;4;
61815;PMS5003;57055;-35.296;149.168;2023-06-22T07:25:07;5;5;
61815;PMS5003;57055;-35.296;149.168;2023-06-22T07:27:37;4;4;
61815;PMS5003;57055;-35.296;149.168;2023-06-22T07:30:07;6;5;
61815;PMS5003;57055;-35.296;149.168;2023-06-22T07:32:37;6;6;
61815;PMS5003;57055;-35.296;149.168;2023-06-22T07:35:07;5;3;
61815;PMS5003;57055;-35.296;149.168;2023-06-22T07:37:36;6;6;
61815;PMS5003;57055;-35.296;149.168;2023-06-22T07:40:06;8;5;
61815;PMS5003;57055;-35.296;149.168;2023-06-22T07:42:36;7;7;
61815;PMS5003;57055;-35.296;149.168;2023-06-22T07:45:05;7;6;
61815;PMS5003;57055;-35.296;149.168;2023-06-22T07:47:34;8;6;
61815;PMS5003;57055;-35.296;149.168;2023-06-22T07:50:03;6;5;
61815;PMS5003;57055;-35.296;149.168;2023-06-22T07:52:33;4;4;
61815;PMS5003;57055;-35.296;149.168;2023-06-22T07:55:02;5;5;
61815;PMS5003;57055;-35.296;149.168;2023-06-22T07:57:31;5;5;
61815;PMS5003;57055;-35.296;149.168;2023-06-22T08:00:01;3;3;
61815;PMS5003;57055;-35.296;149.168;2023-06-22T08:02:32;5;5;
61815;PMS5003;57055;-35.296;149.168;2023-06-22T08:05:02;7;6;
61815;PMS5003;57055;-35.296;149.168;2023-06-22T08:07:30;4;4;
61815;PMS5003;57055;-35.296;149.168;2023-06-22T08:09:59;7;7;
61815;PMS5003;57055;-35.296;149.168;2023-06-22T08:12:28;7;7;
61815;PMS5003;57055;-35.296;149.168;2023-06-22T08:14:57;8;7;
61815;PMS5003;57055;-35.296;149.168;2023-06-22T08:17:27;4;4;
61815;PMS5003;57055;-35.296;149.168;2023-06-22T08:19:56;7;6;
61815;PMS5003;57055;-35.296;149.168;2023-06-22T08:22:24;5;5;
61815;PMS5003;57055;-35.296;149.168;2023-06-22T08:24:53;6;6;
61815;PMS5003;57055;-35.296;149.168;2023-06-22T08:27:22;7;5;
61815;PMS5003;57055;-35.296;149.168;2023-06-22T08:29:51;7;7;
61815;PMS5003;57055;-35.296;149.168;2023-06-22T08:32:20;10;7;
61815;PMS5003;57055;-35.296;149.168;2023-06-22T08:34:49;5;5;
61815;PMS5003;57055;-35.296;149.168;2023-06-22T08:37:18;5;5;
61815;PMS5003;57055;-35.296;149.168;2023-06-22T08:39:47;5;5;
61815;PMS5003;57055;-35.296;149.168;2023-06-22T08:42:15;6;5;
61815;PMS5003;57055;-35.296;149.168;2023-06-22T08:44:44;3;3;
61815;PMS5003;57055;-35.296;149.168;2023-06-22T08:47:13;7;6;
61815;PMS5003;57055;-35.296;149.168;2023-06-22T08:49:42;6;6;
61815;PMS5003;57055;-35.296;149.168;2023-06-22T08:52:11;5;5;
61815;PMS5003;57055;-35.296;149.168;2023-06-22T08:54:40;7;7;
61815;PMS5003;57055;-35.296;149.168;2023-06-22T08:57:09;6;5;
61815;PMS5003;57055;-35.296;149.168;2023-06-22T08:59:38;8;6;
61815;PMS5003;57055;-35.296;149.168;2023-06-22T09:02:07;6;6;
61815;PMS5003;57055;-35.296;149.168;2023-06-22T09:04:36;7;7;
61815;PMS5003;57055;-35.296;149.168;2023-06-22T09:07:05;6;6;
61815;PMS5003;57055;-35.296;149.168;2023-06-22T09:09:34;7;7;
61815;PMS5003;57055;-35.296;149.168;2023-06-22T09:12:03;4;4;
61815;PMS5003;57055;-35.296;149.168;2023-06-22T09:14:33;6;6;
61815;PMS5003;57055;-35.296;149.168;2023-06-22T09:17:02;7;7;
61815;PMS5003;57055;-35.296;149.168;2023-06-22T09:19:31;5;5;
61815;PMS5003;57055;-35.296;149.168;2023-06-22T09:22:00;7;7;
61815;PMS5003;57055;-35.296;149.168;2023-06-22T09:24:29;5;5;
61815;PMS5003;57055;-35.296;149.168;2023-06-22T09:26:58;7;6;
61815;PMS5003;57055;-35.296;149.168;2023-06-22T09:29:27;7;7;
61815;PMS5003;57055;-35.296;149.168;2023-06-22T09:31:56;7;7;
61815;PMS5003;57055;-35.296;149.168;2023-06-22T09:34:25;9;7;
61815;PMS5003;57055;-35.296;149.168;2023-06-22T09:36:53;8;8;
61815;PMS5003;57055;-35.296;149.168;2023-06-22T09:39:22;7;5;
61815;PMS5003;57055;-35.296;149.168;2023-06-22T09:41:51;6;6;
61815;PMS5003;57055;-35.296;149.168;2023-06-22T09:44:20;7;7;
61815;PMS5003;57055;-35.296;149.168;2023-06-22T09:46:49;5;4;
61815;PMS5003;57055;-35.296;149.168;2023-06-22T09:49:18;8;8;
61815;PMS5003;57055;-35.296;149.168;2023-06-22T09:51:47;6;5;
61815;PMS5003;57055;-35.296;149.168;2023-06-22T09:54:16;9;8;
61815;PMS5003;57055;-35.296;149.168;2023-06-22T09:56:44;6;6;
61815;PMS5003;57055;-35.296;149.168;2023-06-22T09:59:13;6;6;
61815;PMS5003;57055;-35.296;149.168;2023-06-22T10:01:42;7;7;
61815;PMS5003;57055;-35.296;149.168;2023-06-22T10:04:12;8;8;
61815;PMS5003;57055;-35.296;149.168;2023-06-22T10:06:40;9;7;
61815;PMS5003;57055;-35.296;149.168;2023-06-22T10:09:09;7;6;
61815;PMS5003;57055;-35.296;149.168;2023-06-22T10:11:38;7;7;
61815;PMS5003;57055;-35.296;149.168;2023-06-22T10:14:07;8;7;
61815;PMS5003;57055;-35.296;149.168;2023-06-22T10:16:36;10;8;
61815;PMS5003;57055;-35.296;149.168;2023-06-22T10:19:05;9;9;
61815;PMS5003;57055;-35.296;149.168;2023-06-22T10:21:35;14;12;
61815;PMS5003;57055;-35.296;149.168;2023-06-22T10:24:04;12;12;
61815;PMS5003;57055;-35.296;149.168;2023-06-22T10:26:33;12;12;
61815;PMS5003;57055;-35.296;149.168;2023-06-22T10:29:02;15;13;
61815;PMS5003;57055;-35.296;149.168;2023-06-22T10:31:32;14;14;
61815;PMS5003;57055;-35.296;149.168;2023-06-22T10:34:02;17;17;
61815;PMS5003;57055;-35.296;149.168;2023-06-22T10:36:31;16;15;
61815;PMS5003;57055;-35.296;149.168;2023-06-22T10:39:00;17;14;
61815;PMS5003;57055;-35.296;149.168;2023-06-22T10:41:28;12;12;
61815;PMS5003;57055;-35.296;149.168;2023-06-22T10:43:57;15;13;
61815;PMS5003;57055;-35.296;149.168;2023-06-22T10:46:26;15;14;
61815;PMS5003;57055;-35.296;149.168;2023-06-22T10:48:55;13;13;
61815;PMS5003;57055;-35.296;149.168;2023-06-22T10:51:24;15;14;
61815;PMS5003;57055;-35.296;149.168;2023-06-22T10:53:53;17;15;
61815;PMS5003;57055;-35.296;149.168;2023-06-22T10:56:21;17;15;
61815;PMS5003;57055;-35.296;149.168;2023-06-22T10:58:50;14;12;
61815;PMS5003;57055;-35.296;149.168;2023-06-22T11:01:19;14;12;
61815;PMS5003;57055;-35.296;149.168;2023-06-22T11:03:49;13;11;
61815;PMS5003;57055;-35.296;149.168;2023-06-22T11:06:18;13;12;
61815;PMS5003;57055;-35.296;149.168;2023-06-22T11:08:47;13;13;
61815;PMS5003;57055;-35.296;149.168;2023-06-22T11:11:16;14;14;
61815;PMS5003;57055;-35.296;149.168;2023-06-22T11:13:45;16;12;
61815;PMS5003;57055;-35.296;149.168;2023-06-22T11:16:14;15;12;
61815;PMS5003;57055;-35.296;149.168;2023-06-22T11:18:43;18;18;
61815;PMS5003;57055;-35.296;149.168;2023-06-22T11:21:12;16;15;
61815;PMS5003;57055;-35.296;149.168;2023-06-22T11:23:42;15;15;
61815;PMS5003;57055;-35.296;149.168;2023-06-22T11:26:12;18;15;
61815;PMS5003;57055;-35.296;149.168;2023-06-22T11:28:40;14;12;
61815;PMS5003;57055;-35.296;149.168;2023-06-22T11:31:09;14;14;
61815;PMS5003;57055;-35.296;149.168;2023-06-22T11:33:38;13;12;
61815;PMS5003;57055;-35.296;149.168;2023-06-22T11:36:07;13;12;
61815;PMS5003;57055;-35.296;149.168;2023-06-22T11:38:37;11;10;
61815;PMS5003;57055;-35.296;149.168;2023-06-22T11:41:06;13;12;
61815;PMS5003;57055;-35.296;149.168;2023-06-22T11:43:36;10;10;
61815;PMS5003;57055;-35.296;149.168;2023-06-22T11:46:05;15;13;
61815;PMS5003;57055;-35.296;149.168;2023-06-22T11:48:34;12;12;
61815;PMS5003;57055;-35.296;149.168;2023-06-22T11:51:03;12;10;
61815;PMS5003;57055;-35.296;149.168;2023-06-22T11:53:32;12;12;
61815;PMS5003;57055;-35.296;149.168;2023-06-22T11:56:01;11;10;
61815;PMS5003;57055;-35.296;149.168;2023-06-22T11:58:30;11;10;
61815;PMS5003;57055;-35.296;149.168;2023-06-22T12:00:59;11;11;
61815;PMS5003;57055;-35.296;149.168;2023-06-22T12:03:28;13;13;
61815;PMS5003;57055;-35.296;149.168;2023-06-22T12:05:56;12;12;
61815;PMS5003;57055;-35.296;149.168;2023-06-22T12:08:26;15;15;
61815;PMS5003;57055;-35.296;149.168;2023-06-22T12:10:55;12;12;
61815;PMS5003;57055;-35.296;149.168;2023-06-22T12:13:24;10;10;
61815;PMS5003;57055;-35.296;149.168;2023-06-22T12:15:53;9;9;
61815;PMS5003;57055;-35.296;149.168;2023-06-22T12:18:22;10;10;
61815;PMS5003;57055;-35.296;149.168;2023-06-22T12:20:51;11;11;
61815;PMS5003;57055;-35.296;149.168;2023-06-22T12:23:20;14;13;
61815;PMS5003;57055;-35.296;149.168;2023-06-22T12:25:49;11;10;
61815;PMS5003;57055;-35.296;149.168;2023-06-22T12:28:18;12;10;
61815;PMS5003;57055;-35.296;149.168;2023-06-22T12:30:47;11;9;
61815;PMS5003;57055;-35.296;149.168;2023-06-22T12:33:16;10;10;
61815;PMS5003;57055;-35.296;149.168;2023-06-22T12:35:45;12;11;
61815;PMS5003;57055;-35.296;149.168;2023-06-22T12:38:14;11;10;
61815;PMS5003;57055;-35.296;149.168;2023-06-22T12:40:44;10;9;
61815;PMS5003;57055;-35.296;149.168;2023-06-22T12:43:13;9;9;
61815;PMS5003;57055;-35.296;149.168;2023-06-22T12:45:42;12;11;
61815;PMS5003;57055;-35.296;149.168;2023-06-22T12:48:11;9;9;
61815;PMS5003;57055;-35.296;149.168;2023-06-22T12:50:39;7;7;
61815;PMS5003;57055;-35.296;149.168;2023-06-22T12:53:08;9;9;
61815;PMS5003;57055;-35.296;149.168;2023-06-22T12:55:37;11;11;
61815;PMS5003;57055;-35.296;149.168;2023-06-22T12:58:06;9;9;
61815;PMS5003;57055;-35.296;149.168;2023-06-22T13:00:35;12;12;
61815;PMS5003;57055;-35.296;149.168;2023-06-22T13:03:04;11;11;
61815;PMS5003;57055;-35.296;149.168;2023-06-22T13:05:33;11;11;
61815;PMS5003;57055;-35.296;149.168;2023-06-22T13:08:02;12;11;
61815;PMS5003;57055;-35.296;149.168;2023-06-22T13:10:31;12;11;
61815;PMS5003;57055;-35.296;149.168;2023-06-22T13:13:00;13;12;
61815;PMS5003;57055;-35.296;149.168;2023-06-22T13:15:29;13;13;
61815;PMS5003;57055;-35.296;149.168;2023-06-22T13:17:58;17;17;
61815;PMS5003;57055;-35.296;149.168;2023-06-22T13:20:28;16;16;
61815;PMS5003;57055;-35.296;149.168;2023-06-22T13:22:56;17;17;
61815;PMS5003;57055;-35.296;149.168;2023-06-22T13:25:25;18;16;
61815;PMS5003;57055;-35.296;149.168;2023-06-22T13:27:55;21;19;
61815;PMS5003;57055;-35.296;149.168;2023-06-22T13:30:24;18;15;
61815;PMS5003;57055;-35.296;149.168;2023-06-22T13:32:53;22;21;
61815;PMS5003;57055;-35.296;149.168;2023-06-22T13:35:22;25;23;
61815;PMS5003;57055;-35.296;149.168;2023-06-22T13:37:50;20;20;
61815;PMS5003;57055;-35.296;149.168;2023-06-22T13:40:19;20;20;
61815;PMS5003;57055;-35.296;149.168;2023-06-22T13:42:48;26;23;
61815;PMS5003;57055;-35.296;149.168;2023-06-22T13:45:17;18;18;
61815;PMS5003;57055;-35.296;149.168;2023-06-22T13:47:45;23;19;
61815;PMS5003;57055;-35.296;149.168;2023-06-22T13:50:14;24;24;
61815;PMS5003;57055;-35.296;149.168;2023-06-22T13:52:43;22;19;
61815;PMS5003;57055;-35.296;149.168;2023-06-22T13:55:13;23;22;
61815;PMS5003;57055;-35.296;149.168;2023-06-22T13:57:42;25;22;
61815;PMS5003;57055;-35.296;149.168;2023-06-22T14:00:11;21;20;
61815;PMS5003;57055;-35.296;149.168;2023-06-22T14:02:41;27;23;
61815;PMS5003;57055;-35.296;149.168;2023-06-22T14:05:10;23;20;
61815;PMS5003;57055;-35.296;149.168;2023-06-22T14:07:39;22;20;
61815;PMS5003;57055;-35.296;149.168;2023-06-22T14:10:07;24;23;
61815;PMS5003;57055;-35.296;149.168;2023-06-22T14:12:38;21;19;
61815;PMS5003;57055;-35.296;149.168;2023-06-22T14:15:07;21;18;
61815;PMS5003;57055;-35.296;149.168;2023-06-22T14:17:36;22;22;
61815;PMS5003;57055;-35.296;149.168;2023-06-22T14:20:05;23;19;
61815;PMS5003;57055;-35.296;149.168;2023-06-22T14:22:35;23;23;
61815;PMS5003;57055;-35.296;149.168;2023-06-22T14:25:05;22;20;
61815;PMS5003;57055;-35.296;149.168;2023-06-22T14:27:34;23;20;
61815;PMS5003;57055;-35.296;149.168;2023-06-22T14:30:04;21;21;
61815;PMS5003;57055;-35.296;149.168;2023-06-22T14:32:33;20;19;
61815;PMS5003;57055;-35.296;149.168;2023-06-22T14:35:02;27;20;
61815;PMS5003;57055;-35.296;149.168;2023-06-22T14:37:31;24;19;
61815;PMS5003;57055;-35.296;149.168;2023-06-22T14:40:00;21;20;
61815;PMS5003;57055;-35.296;149.168;2023-06-22T14:42:30;32;27;
61815;PMS5003;57055;-35.296;149.168;2023-06-22T14:44:59;21;19;
61815;PMS5003;57055;-35.296;149.168;2023-06-22T14:47:27;26;22;
61815;PMS5003;57055;-35.296;149.168;2023-06-22T14:49:56;24;21;
61815;PMS5003;57055;-35.296;149.168;2023-06-22T14:52:25;23;21;
61815;PMS5003;57055;-35.296;149.168;2023-06-22T14:54:54;23;20;
61815;PMS5003;57055;-35.296;149.168;2023-06-22T14:57:23;25;22;
61815;PMS5003;57055;-35.296;149.168;2023-06-22T14:59:52;19;18;
61815;PMS5003;57055;-35.296;149.168;2023-06-22T15:02:22;20;19;
61815;PMS5003;57055;-35.296;149.168;2023-06-22T15:04:52;22;21;
61815;PMS5003;57055;-35.296;149.168;2023-06-22T15:07:20;20;16;
61815;PMS5003;57055;-35.296;149.168;2023-06-22T15:09:49;20;18;
61815;PMS5003;57055;-35.296;149.168;2023-06-22T15:12:18;24;22;
61815;PMS5003;57055;-35.296;149.168;2023-06-22T15:14:47;19;19;
61815;PMS5003;57055;-35.296;149.168;2023-06-22T15:17:16;19;17;
61815;PMS5003;57055;-35.296;149.168;2023-06-22T15:19:44;19;19;
61815;PMS5003;57055;-35.296;149.168;2023-06-22T15:22:14;20;18;
61815;PMS5003;57055;-35.296;149.168;2023-06-22T15:24:43;20;19;
61815;PMS5003;57055;-35.296;149.168;2023-06-22T15:27:11;18;18;
61815;PMS5003;57055;-35.296;149.168;2023-06-22T15:29:40;23;19;
61815;PMS5003;57055;-35.296;149.168;2023-06-22T15:32:10;21;19;
61815;PMS5003;57055;-35.296;149.168;2023-06-22T15:34:39;22;20;
61815;PMS5003;57055;-35.296;149.168;2023-06-22T15:37:08;18;18;
61815;PMS5003;57055;-35.296;149.168;2023-06-22T15:39:37;22;21;
61815;PMS5003;57055;-35.296;149.168;2023-06-22T15:42:06;21;20;
61815;PMS5003;57055;-35.296;149.168;2023-06-22T15:44:35;19;18;
61815;PMS5003;57055;-35.296;149.168;2023-06-22T15:47:04;23;18;
61815;PMS5003;57055;-35.296;149.168;2023-06-22T15:49:33;21;21;
61815;PMS5003;57055;-35.296;149.168;2023-06-22T15:52:02;19;19;
61815;PMS5003;57055;-35.296;149.168;2023-06-22T15:54:31;22;20;
61815;PMS5003;57055;-35.296;149.168;2023-06-22T15:57:00;23;22;
61815;PMS5003;57055;-35.296;149.168;2023-06-22T15:59:28;19;18;
61815;PMS5003;57055;-35.296;149.168;2023-06-22T16:01:57;21;19;